地図

経路データ

SID SEASON NUMBER BASIN SUBBASIN NAME ISO_TIME NATURE LAT LON WMO_WIND WMO_PRES WMO_AGENCY TRACK_TYPE DIST2LAND LANDFALL IFLAG USA_AGENCY USA_ATCF_ID USA_LAT USA_LON USA_RECORD USA_STATUS USA_WIND USA_PRES USA_SSHS USA_R34_NE USA_R34_SE USA_R34_SW USA_R34_NW USA_R50_NE USA_R50_SE USA_R50_SW USA_R50_NW USA_R64_NE USA_R64_SE USA_R64_SW USA_R64_NW USA_POCI USA_ROCI USA_RMW USA_EYE TOKYO_LAT TOKYO_LON TOKYO_GRADE TOKYO_WIND TOKYO_PRES TOKYO_R50_DIR TOKYO_R50_LONG TOKYO_R50_SHORT TOKYO_R30_DIR TOKYO_R30_LONG TOKYO_R30_SHORT TOKYO_LAND CMA_LAT CMA_LON CMA_CAT CMA_WIND CMA_PRES HKO_LAT HKO_LON HKO_CAT HKO_WIND HKO_PRES NEWDELHI_LAT NEWDELHI_LON NEWDELHI_GRADE NEWDELHI_WIND NEWDELHI_PRES NEWDELHI_CI NEWDELHI_DP NEWDELHI_POCI REUNION_LAT REUNION_LON REUNION_TYPE REUNION_WIND REUNION_PRES REUNION_TNUM REUNION_CI REUNION_RMW REUNION_R34_NE REUNION_R34_SE REUNION_R34_SW REUNION_R34_NW REUNION_R50_NE REUNION_R50_SE REUNION_R50_SW REUNION_R50_NW REUNION_R64_NE REUNION_R64_SE REUNION_R64_SW REUNION_R64_NW BOM_LAT BOM_LON BOM_TYPE BOM_WIND BOM_PRES BOM_TNUM BOM_CI BOM_RMW BOM_R34_NE BOM_R34_SE BOM_R34_SW BOM_R34_NW BOM_R50_NE BOM_R50_SE BOM_R50_SW BOM_R50_NW BOM_R64_NE BOM_R64_SE BOM_R64_SW BOM_R64_NW BOM_ROCI BOM_POCI BOM_EYE BOM_POS_METHOD BOM_PRES_METHOD NADI_LAT NADI_LON NADI_CAT NADI_WIND NADI_PRES WELLINGTON_LAT WELLINGTON_LON WELLINGTON_WIND WELLINGTON_PRES DS824_LAT DS824_LON DS824_STAGE DS824_WIND DS824_PRES TD9636_LAT TD9636_LON TD9636_STAGE TD9636_WIND TD9636_PRES TD9635_LAT TD9635_LON TD9635_WIND TD9635_PRES TD9635_ROCI NEUMANN_LAT NEUMANN_LON NEUMANN_CLASS NEUMANN_WIND NEUMANN_PRES MLC_LAT MLC_LON MLC_CLASS MLC_WIND MLC_PRES USA_GUST BOM_GUST BOM_GUST_PER REUNION_GUST REUNION_GUST_PER USA_SEAHGT USA_SEARAD_NE USA_SEARAD_SE USA_SEARAD_SW USA_SEARAD_NW STORM_SPEED STORM_DIR
1921315S16062 1922 63 SI MM NOT_NAMED 1921-11-11 06:00:00 NR -16.4000 61.5000 reunion main 576 569 _____O________ -1 -16.4000 61.5000 99 9.90000 3 294
1921315S16062 1922 63 SI MM NOT_NAMED 1921-11-11 09:00:00 NR -16.3382 61.3488 main 570 563 _____P________ -1 -16.3382 61.3488 99 3 291
1921315S16062 1922 63 SI MM NOT_NAMED 1921-11-11 12:00:00 NR -16.2917 61.1979 main 563 556 _____P________ -1 -16.2917 61.1979 99 3 282
1921315S16062 1922 63 SI MM NOT_NAMED 1921-11-11 15:00:00 NR -16.2760 61.0474 main 549 543 _____P________ -1 -16.2760 61.0474 99 3 267
1921315S16062 1922 63 SI MM NOT_NAMED 1921-11-11 18:00:00 NR -16.3065 60.8973 main 543 527 _____P________ -1 -16.3065 60.8973 99 3 247
1921315S16062 1922 63 SI MM NOT_NAMED 1921-11-11 21:00:00 NR -16.3987 60.7476 main 521 496 _____P________ -1 -16.3987 60.7476 99 4 228
1921315S16062 1922 63 SI MM NOT_NAMED 1921-11-12 00:00:00 NR -16.5680 60.5982 main 496 472 _____P________ -1 -16.5680 60.5982 99 5 214
1921315S16062 1922 63 SI MM NOT_NAMED 1921-11-12 03:00:00 NR -16.8299 60.4491 main 466 424 _____P________ -1 -16.8299 60.4491 99 7 204
1921315S16062 1922 63 SI MM NOT_NAMED 1921-11-12 06:00:00 NR -17.2000 60.3000 reunion main 424 375 _____O________ -1 -17.2000 60.3000 99 9.90000 9 198
1921315S16062 1922 63 SI MM NOT_NAMED 1921-11-12 09:00:00 NR -17.6864 60.1520 main 375 321 _____P________ -1 -17.6864 60.1520 99 11 194
1921315S16062 1922 63 SI MM NOT_NAMED 1921-11-12 12:00:00 NR -18.2675 60.0117 main 314 266 _____P________ -1 -18.2675 60.0117 99 13 192
1921315S16062 1922 63 SI MM NOT_NAMED 1921-11-12 15:00:00 NR -18.9139 59.8871 main 266 223 _____P________ -1 -18.9139 59.8871 99 14 189
1921315S16062 1922 63 SI MM NOT_NAMED 1921-11-12 18:00:00 NR -19.5964 59.7866 main 223 198 _____P________ -1 -19.5964 59.7866 99 14 187
1921315S16062 1922 63 SI MM NOT_NAMED 1921-11-12 21:00:00 NR -20.2856 59.7188 main 198 198 _____P________ -1 -20.2856 59.7188 99 14 184
1921315S16062 1922 63 SI MM NOT_NAMED 1921-11-13 00:00:00 NR -20.9521 59.6924 main 212 212 _____P________ -1 -20.9521 59.6924 99 13 0
1921315S16062 1922 63 SI MM NOT_NAMED 1921-11-13 03:00:00 NR -21.5666 59.7165 main 241 241 _____P________ -1 -21.5666 59.7165 99 12 175
1921315S16062 1922 63 SI MM NOT_NAMED 1921-11-13 06:00:00 NR -22.1000 59.8000 reunion main 281 281 _____O________ -1 -22.1000 59.8000 99 9.90000 9 164
1921315S16062 1922 63 SI MM NOT_NAMED 1921-11-13 09:00:00 NR -22.4616 59.9859 main 326 326 _____P________ -1 -22.4616 59.9859 99 8 148
1921315S16062 1922 63 SI MM NOT_NAMED 1921-11-13 12:00:00 NR -22.7535 60.2367 main 364 364 _____P________ -1 -22.7535 60.2367 99 7 136
1921315S16062 1922 63 SI MM NOT_NAMED 1921-11-13 15:00:00 NR -22.9856 60.5363 main 402 402 _____P________ -1 -22.9856 60.5363 99 7 125
1921315S16062 1922 63 SI MM NOT_NAMED 1921-11-13 18:00:00 NR -23.1679 60.8686 main 447 447 _____P________ -1 -23.1679 60.8686 99 7 117
1921315S16062 1922 63 SI MM NOT_NAMED 1921-11-13 21:00:00 NR -23.3102 61.2174 main 477 477 _____P________ -1 -23.3102 61.2174 99 7 112
1921315S16062 1922 63 SI MM NOT_NAMED 1921-11-14 00:00:00 NR -23.4228 61.5663 main 516 516 _____P________ -1 -23.4228 61.5663 99 7 108
1921315S16062 1922 63 SI MM NOT_NAMED 1921-11-14 03:00:00 NR -23.5160 61.8993 main 547 547 _____P________ -1 -23.5160 61.8993 99 6 107
1921315S16062 1922 63 SI MM NOT_NAMED 1921-11-14 06:00:00 NR -23.6000 62.2000 reunion main 578 578 _____O________ -1 -23.6000 62.2000 99 9.90000 5 114
1921315S16062 1922 63 SI MM NOT_NAMED 1921-11-14 09:00:00 NR -23.7013 62.3474 main 593 593 _____P________ -1 -23.7013 62.3474 99 3 127
1921315S16062 1922 63 SI MM NOT_NAMED 1921-11-14 12:00:00 NR -23.7834 62.4616 main 616 616 _____P________ -1 -23.7834 62.4616 99 2 128
1921315S16062 1922 63 SI MM NOT_NAMED 1921-11-14 15:00:00 NR -23.8539 62.5595 main 631 631 _____P________ -1 -23.8539 62.5595 99 2 127
1921315S16062 1922 63 SI MM NOT_NAMED 1921-11-14 18:00:00 NR -23.9206 62.6582 main 639 639 _____P________ -1 -23.9206 62.6582 99 2 125
1921315S16062 1922 63 SI MM NOT_NAMED 1921-11-14 21:00:00 NR -23.9910 62.7744 main 654 654 _____P________ -1 -23.9910 62.7744 99 3 122
1921315S16062 1922 63 SI MM NOT_NAMED 1921-11-15 00:00:00 NR -24.0727 62.9253 main 669 669 _____P________ -1 -24.0727 62.9253 99 4 119
1921315S16062 1922 63 SI MM NOT_NAMED 1921-11-15 03:00:00 NR -24.1733 63.1281 main 692 692 _____P________ -1 -24.1733 63.1281 99 5 118
1921315S16062 1922 63 SI MM NOT_NAMED 1921-11-15 06:00:00 NR -24.3000 63.4000 reunion main 723 723 _____O________ -1 -24.3000 63.4000 99 9.90000 7 116
1921315S16062 1922 63 SI MM NOT_NAMED 1921-11-15 09:00:00 NR -24.5011 63.8504 main 777 777 _____P________ -1 -24.5011 63.8504 99 10 116
1921315S16062 1922 63 SI MM NOT_NAMED 1921-11-15 12:00:00 NR -24.7279 64.3754 main 832 832 _____P________ -1 -24.7279 64.3754 99 11 115
1921315S16062 1922 63 SI MM NOT_NAMED 1921-11-15 15:00:00 NR -24.9706 64.9523 main 901 901 _____P________ -1 -24.9706 64.9523 99 12 115
1921315S16062 1922 63 SI MM NOT_NAMED 1921-11-15 18:00:00 NR -25.2197 65.5583 main 964 964 _____P________ -1 -25.2197 65.5583 99 12 114
1921315S16062 1922 63 SI MM NOT_NAMED 1921-11-15 21:00:00 NR -25.4658 66.1699 main 1033 1033 _____P________ -1 -25.4658 66.1699 99 12 114
1921315S16062 1922 63 SI MM NOT_NAMED 1921-11-16 00:00:00 NR -25.7002 66.7634 main 1096 1096 _____P________ -1 -25.7002 66.7634 99 11 113
1921315S16062 1922 63 SI MM NOT_NAMED 1921-11-16 03:00:00 NR -25.9143 67.3149 main 1150 1150 _____P________ -1 -25.9143 67.3149 99 10 113
1921315S16062 1922 63 SI MM NOT_NAMED 1921-11-16 06:00:00 NR -26.1000 67.8000 reunion main 1205 1205 _____O________ -1 -26.1000 67.8000 99 9.90000 9 113
1921315S16062 1922 63 SI MM NOT_NAMED 1921-11-16 09:00:00 NR -26.2516 68.2003 main 1251 1251 _____P________ -1 -26.2516 68.2003 99 7 113
1921315S16062 1922 63 SI MM NOT_NAMED 1921-11-16 12:00:00 NR -26.3721 68.5208 main 1282 1282 _____P________ -1 -26.3721 68.5208 99 6 113
1921315S16062 1922 63 SI MM NOT_NAMED 1921-11-16 15:00:00 NR -26.4663 68.7727 main 1314 1314 _____P________ -1 -26.4663 68.7727 99 4 113
1921315S16062 1922 63 SI MM NOT_NAMED 1921-11-16 18:00:00 NR -26.5387 68.9672 main 1331 1331 _____P________ -1 -26.5387 68.9672 99 3 113
1921315S16062 1922 63 SI MM NOT_NAMED 1921-11-16 21:00:00 NR -26.5940 69.1157 main 1345 1345 _____P________ -1 -26.5940 69.1157 99 3 113
1921315S16062 1922 63 SI MM NOT_NAMED 1921-11-17 00:00:00 NR -26.6364 69.2296 main 1354 1354 _____P________ -1 -26.6364 69.2296 99 2 113
1921315S16062 1922 63 SI MM NOT_NAMED 1921-11-17 03:00:00 NR -26.6703 69.3206 main 1368 1368 _____P________ -1 -26.6703 69.3206 99 2 112
1921315S16062 1922 63 SI MM NOT_NAMED 1921-11-17 06:00:00 NR -26.7000 69.4000 reunion main 1377 _____O________ -1 -26.7000 69.4000 99 9.90000 2 112

IBTrACS Databaseについて

本データベースは、米国NOAAが公開する1842年以降の世界の熱帯低気圧のベストトラックデータアーカイブInternational Best Track Archive for Climate Stewardship (IBTrACS)を、ウェブで閲覧しやすい形式に変換したものです。

最終更新日:2021-12-01